sensor_id;sensor_type;location;lat;lon;timestamp;P1;durP1;ratioP1;P2;durP2;ratioP2
26654;SDS011;14278;50.784;4.630;2022-11-20T00:01:13;8.83;;;5.97;;
26654;SDS011;14278;50.784;4.630;2022-11-20T00:03:50;10.80;;;8.23;;
26654;SDS011;14278;50.784;4.630;2022-11-20T00:06:18;12.63;;;7.93;;
26654;SDS011;14278;50.784;4.630;2022-11-20T00:08:45;9.90;;;7.23;;
26654;SDS011;14278;50.784;4.630;2022-11-20T00:11:12;12.43;;;8.33;;
26654;SDS011;14278;50.784;4.630;2022-11-20T00:13:40;9.53;;;6.97;;
26654;SDS011;14278;50.784;4.630;2022-11-20T00:16:07;11.17;;;6.80;;
26654;SDS011;14278;50.784;4.630;2022-11-20T00:18:35;7.00;;;5.77;;
26654;SDS011;14278;50.784;4.630;2022-11-20T00:21:04;7.70;;;6.90;;
26654;SDS011;14278;50.784;4.630;2022-11-20T00:23:32;11.43;;;8.00;;
26654;SDS011;14278;50.784;4.630;2022-11-20T00:26:02;10.37;;;8.07;;
26654;SDS011;14278;50.784;4.630;2022-11-20T00:28:32;8.50;;;6.57;;
26654;SDS011;14278;50.784;4.630;2022-11-20T00:31:09;7.97;;;7.13;;
26654;SDS011;14278;50.784;4.630;2022-11-20T00:33:36;10.40;;;8.03;;
26654;SDS011;14278;50.784;4.630;2022-11-20T00:36:07;6.90;;;5.97;;
26654;SDS011;14278;50.784;4.630;2022-11-20T00:38:36;8.63;;;7.73;;
26654;SDS011;14278;50.784;4.630;2022-11-20T00:41:04;11.77;;;8.07;;
26654;SDS011;14278;50.784;4.630;2022-11-20T00:43:31;7.97;;;6.77;;
26654;SDS011;14278;50.784;4.630;2022-11-20T00:46:01;12.67;;;7.30;;
26654;SDS011;14278;50.784;4.630;2022-11-20T00:48:31;9.67;;;7.27;;
26654;SDS011;14278;50.784;4.630;2022-11-20T00:50:57;17.50;;;9.27;;
26654;SDS011;14278;50.784;4.630;2022-11-20T00:53:23;10.77;;;7.80;;
26654;SDS011;14278;50.784;4.630;2022-11-20T00:55:57;12.17;;;8.93;;
26654;SDS011;14278;50.784;4.630;2022-11-20T00:58:31;12.03;;;7.23;;
26654;SDS011;14278;50.784;4.630;2022-11-20T01:01:03;10.70;;;9.00;;
26654;SDS011;14278;50.784;4.630;2022-11-20T01:03:31;10.87;;;9.20;;
26654;SDS011;14278;50.784;4.630;2022-11-20T01:06:01;10.60;;;7.40;;
26654;SDS011;14278;50.784;4.630;2022-11-20T01:08:32;11.27;;;9.07;;
26654;SDS011;14278;50.784;4.630;2022-11-20T01:11:00;9.57;;;7.80;;
26654;SDS011;14278;50.784;4.630;2022-11-20T01:13:27;11.03;;;7.67;;
26654;SDS011;14278;50.784;4.630;2022-11-20T01:16:13;9.23;;;7.60;;
26654;SDS011;14278;50.784;4.630;2022-11-20T01:18:47;9.43;;;7.40;;
26654;SDS011;14278;50.784;4.630;2022-11-20T01:21:21;11.77;;;6.77;;
26654;SDS011;14278;50.784;4.630;2022-11-20T01:23:49;12.07;;;7.93;;
26654;SDS011;14278;50.784;4.630;2022-11-20T01:26:16;8.80;;;6.40;;
26654;SDS011;14278;50.784;4.630;2022-11-20T01:28:44;10.80;;;7.80;;
26654;SDS011;14278;50.784;4.630;2022-11-20T01:31:14;8.50;;;7.57;;
26654;SDS011;14278;50.784;4.630;2022-11-20T01:33:42;13.57;;;8.03;;
26654;SDS011;14278;50.784;4.630;2022-11-20T01:36:09;11.77;;;7.37;;
26654;SDS011;14278;50.784;4.630;2022-11-20T01:38:36;9.87;;;8.27;;
26654;SDS011;14278;50.784;4.630;2022-11-20T01:41:02;15.57;;;8.63;;
26654;SDS011;14278;50.784;4.630;2022-11-20T01:43:28;11.30;;;8.70;;
26654;SDS011;14278;50.784;4.630;2022-11-20T01:48:50;7.97;;;6.97;;
26654;SDS011;14278;50.784;4.630;2022-11-20T01:54:34;13.33;;;8.53;;
26654;SDS011;14278;50.784;4.630;2022-11-20T01:57:05;10.87;;;8.13;;
26654;SDS011;14278;50.784;4.630;2022-11-20T01:59:33;10.77;;;7.23;;
26654;SDS011;14278;50.784;4.630;2022-11-20T02:02:01;12.37;;;8.10;;
26654;SDS011;14278;50.784;4.630;2022-11-20T02:04:27;11.57;;;8.73;;
26654;SDS011;14278;50.784;4.630;2022-11-20T02:06:55;9.37;;;7.03;;
26654;SDS011;14278;50.784;4.630;2022-11-20T02:09:28;10.00;;;7.97;;
26654;SDS011;14278;50.784;4.630;2022-11-20T02:11:54;11.07;;;8.53;;
26654;SDS011;14278;50.784;4.630;2022-11-20T02:14:21;10.63;;;7.93;;
26654;SDS011;14278;50.784;4.630;2022-11-20T02:16:48;14.07;;;8.13;;
26654;SDS011;14278;50.784;4.630;2022-11-20T02:19:26;13.13;;;9.33;;
26654;SDS011;14278;50.784;4.630;2022-11-20T02:24:24;12.17;;;7.40;;
26654;SDS011;14278;50.784;4.630;2022-11-20T02:26:54;18.03;;;8.93;;
26654;SDS011;14278;50.784;4.630;2022-11-20T02:29:32;13.57;;;7.87;;
26654;SDS011;14278;50.784;4.630;2022-11-20T02:32:25;12.60;;;8.10;;
26654;SDS011;14278;50.784;4.630;2022-11-20T02:34:53;12.33;;;7.73;;
26654;SDS011;14278;50.784;4.630;2022-11-20T02:37:20;9.47;;;6.97;;
26654;SDS011;14278;50.784;4.630;2022-11-20T02:39:46;12.80;;;8.30;;
26654;SDS011;14278;50.784;4.630;2022-11-20T02:42:14;13.53;;;9.27;;
26654;SDS011;14278;50.784;4.630;2022-11-20T02:44:40;11.97;;;9.23;;
26654;SDS011;14278;50.784;4.630;2022-11-20T02:47:07;15.03;;;8.70;;
26654;SDS011;14278;50.784;4.630;2022-11-20T02:49:33;15.60;;;10.00;;
26654;SDS011;14278;50.784;4.630;2022-11-20T02:51:59;10.87;;;8.30;;
26654;SDS011;14278;50.784;4.630;2022-11-20T02:54:25;14.70;;;9.70;;
26654;SDS011;14278;50.784;4.630;2022-11-20T02:56:51;18.30;;;11.90;;
26654;SDS011;14278;50.784;4.630;2022-11-20T02:59:17;17.13;;;9.47;;
26654;SDS011;14278;50.784;4.630;2022-11-20T03:01:43;13.07;;;9.43;;
26654;SDS011;14278;50.784;4.630;2022-11-20T03:04:09;10.43;;;8.03;;
26654;SDS011;14278;50.784;4.630;2022-11-20T03:06:35;13.77;;;9.77;;
26654;SDS011;14278;50.784;4.630;2022-11-20T03:09:00;11.70;;;8.90;;
26654;SDS011;14278;50.784;4.630;2022-11-20T03:11:27;14.57;;;9.13;;
26654;SDS011;14278;50.784;4.630;2022-11-20T03:13:53;13.93;;;8.17;;
26654;SDS011;14278;50.784;4.630;2022-11-20T03:16:20;16.63;;;10.57;;
26654;SDS011;14278;50.784;4.630;2022-11-20T03:18:47;13.93;;;8.50;;
26654;SDS011;14278;50.784;4.630;2022-11-20T03:21:14;14.30;;;11.03;;
26654;SDS011;14278;50.784;4.630;2022-11-20T03:23:41;13.13;;;10.03;;
26654;SDS011;14278;50.784;4.630;2022-11-20T03:26:09;21.23;;;8.87;;
26654;SDS011;14278;50.784;4.630;2022-11-20T03:28:39;11.77;;;9.43;;
26654;SDS011;14278;50.784;4.630;2022-11-20T03:31:10;15.13;;;9.77;;
26654;SDS011;14278;50.784;4.630;2022-11-20T03:33:38;13.27;;;9.00;;
26654;SDS011;14278;50.784;4.630;2022-11-20T03:36:06;14.73;;;9.70;;
26654;SDS011;14278;50.784;4.630;2022-11-20T03:38:39;11.47;;;9.33;;
26654;SDS011;14278;50.784;4.630;2022-11-20T03:41:09;12.27;;;8.00;;
26654;SDS011;14278;50.784;4.630;2022-11-20T03:43:37;11.03;;;7.53;;
26654;SDS011;14278;50.784;4.630;2022-11-20T03:46:03;13.27;;;8.43;;
26654;SDS011;14278;50.784;4.630;2022-11-20T03:48:31;10.07;;;7.70;;
26654;SDS011;14278;50.784;4.630;2022-11-20T03:51:06;13.37;;;9.37;;
26654;SDS011;14278;50.784;4.630;2022-11-20T03:53:37;13.17;;;9.27;;
26654;SDS011;14278;50.784;4.630;2022-11-20T03:56:03;9.77;;;7.00;;
26654;SDS011;14278;50.784;4.630;2022-11-20T03:58:30;9.43;;;6.30;;
26654;SDS011;14278;50.784;4.630;2022-11-20T04:00:56;11.33;;;7.57;;
26654;SDS011;14278;50.784;4.630;2022-11-20T04:03:22;10.67;;;7.10;;
26654;SDS011;14278;50.784;4.630;2022-11-20T04:05:47;11.67;;;8.07;;
26654;SDS011;14278;50.784;4.630;2022-11-20T04:08:13;10.80;;;7.90;;
26654;SDS011;14278;50.784;4.630;2022-11-20T04:10:39;10.63;;;6.63;;
26654;SDS011;14278;50.784;4.630;2022-11-20T04:13:05;8.57;;;6.33;;
26654;SDS011;14278;50.784;4.630;2022-11-20T04:15:31;11.13;;;7.23;;
26654;SDS011;14278;50.784;4.630;2022-11-20T04:17:56;8.27;;;5.50;;
26654;SDS011;14278;50.784;4.630;2022-11-20T04:20:22;9.10;;;6.83;;
26654;SDS011;14278;50.784;4.630;2022-11-20T04:22:48;13.60;;;8.17;;
26654;SDS011;14278;50.784;4.630;2022-11-20T04:25:14;10.20;;;5.57;;
26654;SDS011;14278;50.784;4.630;2022-11-20T04:27:40;7.47;;;6.53;;
26654;SDS011;14278;50.784;4.630;2022-11-20T04:30:06;11.87;;;6.97;;
26654;SDS011;14278;50.784;4.630;2022-11-20T04:32:32;9.43;;;6.63;;
26654;SDS011;14278;50.784;4.630;2022-11-20T04:34:58;8.70;;;6.97;;
26654;SDS011;14278;50.784;4.630;2022-11-20T04:37:24;7.50;;;6.30;;
26654;SDS011;14278;50.784;4.630;2022-11-20T04:39:50;10.03;;;6.37;;
26654;SDS011;14278;50.784;4.630;2022-11-20T04:42:16;7.67;;;6.17;;
26654;SDS011;14278;50.784;4.630;2022-11-20T04:44:53;8.57;;;6.40;;
26654;SDS011;14278;50.784;4.630;2022-11-20T04:47:20;14.10;;;8.00;;
26654;SDS011;14278;50.784;4.630;2022-11-20T04:49:46;10.60;;;7.27;;
26654;SDS011;14278;50.784;4.630;2022-11-20T04:52:12;15.30;;;7.23;;
26654;SDS011;14278;50.784;4.630;2022-11-20T04:54:38;9.30;;;6.60;;
26654;SDS011;14278;50.784;4.630;2022-11-20T04:57:04;10.13;;;6.53;;
26654;SDS011;14278;50.784;4.630;2022-11-20T04:59:30;13.47;;;6.90;;
26654;SDS011;14278;50.784;4.630;2022-11-20T05:01:56;10.10;;;7.77;;
26654;SDS011;14278;50.784;4.630;2022-11-20T05:04:22;7.60;;;6.13;;
26654;SDS011;14278;50.784;4.630;2022-11-20T05:06:49;9.23;;;6.70;;
26654;SDS011;14278;50.784;4.630;2022-11-20T05:09:15;7.27;;;5.93;;
26654;SDS011;14278;50.784;4.630;2022-11-20T05:11:41;8.63;;;6.50;;
26654;SDS011;14278;50.784;4.630;2022-11-20T05:14:07;10.13;;;7.60;;
26654;SDS011;14278;50.784;4.630;2022-11-20T05:16:33;10.63;;;7.00;;
26654;SDS011;14278;50.784;4.630;2022-11-20T05:19:00;20.63;;;7.23;;
26654;SDS011;14278;50.784;4.630;2022-11-20T05:21:26;9.70;;;5.70;;
26654;SDS011;14278;50.784;4.630;2022-11-20T05:23:52;11.10;;;6.47;;
26654;SDS011;14278;50.784;4.630;2022-11-20T05:26:19;8.70;;;6.50;;
26654;SDS011;14278;50.784;4.630;2022-11-20T05:28:49;10.37;;;7.47;;
26654;SDS011;14278;50.784;4.630;2022-11-20T05:31:19;10.83;;;6.10;;
26654;SDS011;14278;50.784;4.630;2022-11-20T05:33:46;10.60;;;7.80;;
26654;SDS011;14278;50.784;4.630;2022-11-20T05:36:13;12.33;;;8.43;;
26654;SDS011;14278;50.784;4.630;2022-11-20T05:38:40;13.63;;;7.70;;
26654;SDS011;14278;50.784;4.630;2022-11-20T05:41:13;10.23;;;7.03;;
26654;SDS011;14278;50.784;4.630;2022-11-20T05:43:43;16.27;;;7.33;;
26654;SDS011;14278;50.784;4.630;2022-11-20T05:46:12;11.23;;;6.57;;
26654;SDS011;14278;50.784;4.630;2022-11-20T05:48:39;16.50;;;8.27;;
26654;SDS011;14278;50.784;4.630;2022-11-20T05:51:08;14.53;;;7.30;;
26654;SDS011;14278;50.784;4.630;2022-11-20T05:53:35;15.40;;;8.00;;
26654;SDS011;14278;50.784;4.630;2022-11-20T05:58:31;13.83;;;8.30;;
26654;SDS011;14278;50.784;4.630;2022-11-20T06:01:11;12.03;;;7.07;;
26654;SDS011;14278;50.784;4.630;2022-11-20T06:03:48;18.03;;;7.97;;
26654;SDS011;14278;50.784;4.630;2022-11-20T06:06:15;12.53;;;8.10;;
26654;SDS011;14278;50.784;4.630;2022-11-20T06:08:42;12.13;;;8.30;;
26654;SDS011;14278;50.784;4.630;2022-11-20T06:11:09;9.77;;;7.47;;
26654;SDS011;14278;50.784;4.630;2022-11-20T06:13:36;13.83;;;8.60;;
26654;SDS011;14278;50.784;4.630;2022-11-20T06:16:03;12.27;;;8.17;;
26654;SDS011;14278;50.784;4.630;2022-11-20T06:18:29;14.03;;;8.83;;
26654;SDS011;14278;50.784;4.630;2022-11-20T06:20:59;13.73;;;9.03;;
26654;SDS011;14278;50.784;4.630;2022-11-20T06:23:30;12.47;;;8.20;;
26654;SDS011;14278;50.784;4.630;2022-11-20T06:25:56;11.87;;;8.13;;
26654;SDS011;14278;50.784;4.630;2022-11-20T06:28:22;18.57;;;9.90;;
26654;SDS011;14278;50.784;4.630;2022-11-20T06:30:48;12.07;;;8.00;;
26654;SDS011;14278;50.784;4.630;2022-11-20T06:33:13;20.37;;;9.27;;
26654;SDS011;14278;50.784;4.630;2022-11-20T06:35:39;12.30;;;7.67;;
26654;SDS011;14278;50.784;4.630;2022-11-20T06:38:05;12.47;;;8.70;;
26654;SDS011;14278;50.784;4.630;2022-11-20T06:40:31;12.73;;;8.47;;
26654;SDS011;14278;50.784;4.630;2022-11-20T06:43:00;10.73;;;8.57;;
26654;SDS011;14278;50.784;4.630;2022-11-20T06:45:26;16.40;;;9.17;;
26654;SDS011;14278;50.784;4.630;2022-11-20T06:47:52;13.67;;;8.10;;
26654;SDS011;14278;50.784;4.630;2022-11-20T06:50:18;10.00;;;7.63;;
26654;SDS011;14278;50.784;4.630;2022-11-20T06:52:44;12.53;;;8.07;;
26654;SDS011;14278;50.784;4.630;2022-11-20T06:55:10;20.30;;;10.30;;
26654;SDS011;14278;50.784;4.630;2022-11-20T06:57:36;18.50;;;9.43;;
26654;SDS011;14278;50.784;4.630;2022-11-20T07:00:01;16.20;;;9.97;;
26654;SDS011;14278;50.784;4.630;2022-11-20T07:02:27;15.93;;;9.30;;
26654;SDS011;14278;50.784;4.630;2022-11-20T07:04:53;14.37;;;8.80;;
26654;SDS011;14278;50.784;4.630;2022-11-20T07:07:19;15.53;;;9.30;;
26654;SDS011;14278;50.784;4.630;2022-11-20T07:09:45;15.13;;;9.17;;
26654;SDS011;14278;50.784;4.630;2022-11-20T07:12:11;12.23;;;8.10;;
26654;SDS011;14278;50.784;4.630;2022-11-20T07:14:36;20.77;;;9.60;;
26654;SDS011;14278;50.784;4.630;2022-11-20T07:17:03;18.70;;;10.23;;
26654;SDS011;14278;50.784;4.630;2022-11-20T07:19:28;15.37;;;8.83;;
26654;SDS011;14278;50.784;4.630;2022-11-20T07:21:54;13.00;;;9.13;;
26654;SDS011;14278;50.784;4.630;2022-11-20T07:24:20;17.70;;;9.63;;
26654;SDS011;14278;50.784;4.630;2022-11-20T07:26:46;12.80;;;9.23;;
26654;SDS011;14278;50.784;4.630;2022-11-20T07:29:14;11.40;;;7.63;;
26654;SDS011;14278;50.784;4.630;2022-11-20T07:31:40;15.40;;;9.53;;
26654;SDS011;14278;50.784;4.630;2022-11-20T07:34:06;10.87;;;8.37;;
26654;SDS011;14278;50.784;4.630;2022-11-20T07:36:31;14.57;;;8.23;;
26654;SDS011;14278;50.784;4.630;2022-11-20T07:38:57;13.77;;;9.40;;
26654;SDS011;14278;50.784;4.630;2022-11-20T07:41:23;12.83;;;8.57;;
26654;SDS011;14278;50.784;4.630;2022-11-20T07:43:49;13.20;;;8.40;;
26654;SDS011;14278;50.784;4.630;2022-11-20T07:46:15;19.30;;;9.23;;
26654;SDS011;14278;50.784;4.630;2022-11-20T07:48:41;17.43;;;10.87;;
26654;SDS011;14278;50.784;4.630;2022-11-20T07:51:06;16.50;;;10.07;;
26654;SDS011;14278;50.784;4.630;2022-11-20T07:53:32;22.17;;;18.57;;
26654;SDS011;14278;50.784;4.630;2022-11-20T07:56:01;22.33;;;14.30;;
26654;SDS011;14278;50.784;4.630;2022-11-20T07:58:31;79.33;;;48.53;;
26654;SDS011;14278;50.784;4.630;2022-11-20T08:00:58;25.77;;;14.20;;
26654;SDS011;14278;50.784;4.630;2022-11-20T08:03:28;13.07;;;8.73;;
26654;SDS011;14278;50.784;4.630;2022-11-20T08:05:54;12.07;;;8.20;;
26654;SDS011;14278;50.784;4.630;2022-11-20T08:08:23;18.07;;;9.77;;
26654;SDS011;14278;50.784;4.630;2022-11-20T08:10:49;23.17;;;9.53;;
26654;SDS011;14278;50.784;4.630;2022-11-20T08:13:14;12.40;;;9.27;;
26654;SDS011;14278;50.784;4.630;2022-11-20T08:15:58;12.00;;;8.20;;
26654;SDS011;14278;50.784;4.630;2022-11-20T08:18:25;13.17;;;8.07;;
26654;SDS011;14278;50.784;4.630;2022-11-20T08:20:50;19.03;;;8.27;;
26654;SDS011;14278;50.784;4.630;2022-11-20T08:23:16;14.57;;;8.77;;
26654;SDS011;14278;50.784;4.630;2022-11-20T08:25:42;12.53;;;8.90;;
26654;SDS011;14278;50.784;4.630;2022-11-20T08:28:08;13.53;;;8.60;;
26654;SDS011;14278;50.784;4.630;2022-11-20T08:30:35;17.73;;;9.43;;
26654;SDS011;14278;50.784;4.630;2022-11-20T08:33:05;15.07;;;9.37;;
26654;SDS011;14278;50.784;4.630;2022-11-20T08:35:35;14.53;;;9.23;;
26654;SDS011;14278;50.784;4.630;2022-11-20T08:38:03;15.37;;;9.73;;
26654;SDS011;14278;50.784;4.630;2022-11-20T08:40:29;18.43;;;9.87;;
26654;SDS011;14278;50.784;4.630;2022-11-20T08:42:56;38.17;;;20.77;;
26654;SDS011;14278;50.784;4.630;2022-11-20T08:45:22;21.37;;;12.90;;
26654;SDS011;14278;50.784;4.630;2022-11-20T08:47:48;17.10;;;11.70;;
26654;SDS011;14278;50.784;4.630;2022-11-20T08:50:14;16.63;;;10.10;;
26654;SDS011;14278;50.784;4.630;2022-11-20T08:52:41;15.30;;;9.97;;
26654;SDS011;14278;50.784;4.630;2022-11-20T08:55:08;16.80;;;10.03;;
26654;SDS011;14278;50.784;4.630;2022-11-20T08:57:35;11.97;;;8.20;;
26654;SDS011;14278;50.784;4.630;2022-11-20T09:00:02;12.87;;;8.77;;
26654;SDS011;14278;50.784;4.630;2022-11-20T09:02:29;14.83;;;9.37;;
26654;SDS011;14278;50.784;4.630;2022-11-20T09:04:59;19.50;;;9.70;;
26654;SDS011;14278;50.784;4.630;2022-11-20T09:07:27;12.13;;;8.10;;
26654;SDS011;14278;50.784;4.630;2022-11-20T09:09:54;18.23;;;10.53;;
26654;SDS011;14278;50.784;4.630;2022-11-20T09:12:19;15.30;;;9.50;;
26654;SDS011;14278;50.784;4.630;2022-11-20T09:14:45;13.37;;;7.93;;
26654;SDS011;14278;50.784;4.630;2022-11-20T09:17:11;19.80;;;10.20;;
26654;SDS011;14278;50.784;4.630;2022-11-20T09:19:38;17.60;;;10.30;;
26654;SDS011;14278;50.784;4.630;2022-11-20T09:22:04;13.57;;;9.10;;
26654;SDS011;14278;50.784;4.630;2022-11-20T09:24:30;17.80;;;9.80;;
26654;SDS011;14278;50.784;4.630;2022-11-20T09:26:56;15.27;;;9.17;;
26654;SDS011;14278;50.784;4.630;2022-11-20T09:29:22;14.17;;;8.20;;
26654;SDS011;14278;50.784;4.630;2022-11-20T09:31:48;14.10;;;9.63;;
26654;SDS011;14278;50.784;4.630;2022-11-20T09:34:14;20.97;;;9.63;;
26654;SDS011;14278;50.784;4.630;2022-11-20T09:36:40;10.70;;;8.17;;
26654;SDS011;14278;50.784;4.630;2022-11-20T09:39:06;13.33;;;9.03;;
26654;SDS011;14278;50.784;4.630;2022-11-20T09:49:49;10.00;;;6.13;;
26654;SDS011;14278;50.784;4.630;2022-11-20T09:52:30;10.20;;;6.50;;
26654;SDS011;14278;50.784;4.630;2022-11-20T09:55:04;14.30;;;6.67;;
26654;SDS011;14278;50.784;4.630;2022-11-20T09:57:36;13.07;;;7.43;;
26654;SDS011;14278;50.784;4.630;2022-11-20T10:00:05;9.73;;;6.90;;
26654;SDS011;14278;50.784;4.630;2022-11-20T10:07:55;9.47;;;5.80;;
26654;SDS011;14278;50.784;4.630;2022-11-20T10:10:43;6.03;;;5.10;;
26654;SDS011;14278;50.784;4.630;2022-11-20T10:16:02;10.00;;;5.93;;
26654;SDS011;14278;50.784;4.630;2022-11-20T10:26:43;6.20;;;4.50;;
26654;SDS011;14278;50.784;4.630;2022-11-20T10:29:35;6.33;;;3.97;;
26654;SDS011;14278;50.784;4.630;2022-11-20T10:32:07;7.83;;;4.63;;
26654;SDS011;14278;50.784;4.630;2022-11-20T10:34:47;5.93;;;4.60;;
26654;SDS011;14278;50.784;4.630;2022-11-20T10:37:23;13.27;;;3.90;;
26654;SDS011;14278;50.784;4.630;2022-11-20T10:45:16;20.43;;;11.07;;
26654;SDS011;14278;50.784;4.630;2022-11-20T10:47:56;19.37;;;11.27;;
26654;SDS011;14278;50.784;4.630;2022-11-20T10:50:40;4.50;;;3.53;;
26654;SDS011;14278;50.784;4.630;2022-11-20T10:53:24;4.60;;;3.60;;
26654;SDS011;14278;50.784;4.630;2022-11-20T10:56:17;2.23;;;2.03;;
26654;SDS011;14278;50.784;4.630;2022-11-20T11:02:19;2.63;;;2.20;;
26654;SDS011;14278;50.784;4.630;2022-11-20T11:04:49;3.83;;;2.73;;
26654;SDS011;14278;50.784;4.630;2022-11-20T11:07:19;1.90;;;1.80;;
26654;SDS011;14278;50.784;4.630;2022-11-20T11:09:53;1.57;;;1.47;;
26654;SDS011;14278;50.784;4.630;2022-11-20T11:12:26;2.10;;;1.90;;
26654;SDS011;14278;50.784;4.630;2022-11-20T11:14:54;1.40;;;1.33;;
26654;SDS011;14278;50.784;4.630;2022-11-20T11:22:43;1.93;;;1.40;;
26654;SDS011;14278;50.784;4.630;2022-11-20T11:27:53;2.00;;;1.57;;
26654;SDS011;14278;50.784;4.630;2022-11-20T11:30:23;1.63;;;1.33;;
26654;SDS011;14278;50.784;4.630;2022-11-20T11:32:50;3.43;;;1.43;;
26654;SDS011;14278;50.784;4.630;2022-11-20T11:35:28;1.10;;;1.10;;
26654;SDS011;14278;50.784;4.630;2022-11-20T11:38:00;2.00;;;1.27;;
26654;SDS011;14278;50.784;4.630;2022-11-20T11:40:35;2.00;;;1.27;;
26654;SDS011;14278;50.784;4.630;2022-11-20T11:43:15;1.63;;;1.47;;
26654;SDS011;14278;50.784;4.630;2022-11-20T11:46:02;3.00;;;1.77;;
26654;SDS011;14278;50.784;4.630;2022-11-20T11:48:30;3.40;;;1.67;;
26654;SDS011;14278;50.784;4.630;2022-11-20T11:50:56;1.60;;;1.40;;
26654;SDS011;14278;50.784;4.630;2022-11-20T11:53:22;1.47;;;1.37;;
26654;SDS011;14278;50.784;4.630;2022-11-20T11:56:08;1.30;;;1.20;;
26654;SDS011;14278;50.784;4.630;2022-11-20T11:58:46;3.30;;;1.50;;
26654;SDS011;14278;50.784;4.630;2022-11-20T12:01:32;2.00;;;1.10;;
26654;SDS011;14278;50.784;4.630;2022-11-20T12:07:19;1.37;;;1.27;;
26654;SDS011;14278;50.784;4.630;2022-11-20T12:09:52;3.70;;;1.63;;
26654;SDS011;14278;50.784;4.630;2022-11-20T12:12:21;2.67;;;1.70;;
26654;SDS011;14278;50.784;4.630;2022-11-20T12:14:52;1.93;;;1.10;;
26654;SDS011;14278;50.784;4.630;2022-11-20T12:17:21;2.40;;;1.33;;
26654;SDS011;14278;50.784;4.630;2022-11-20T12:19:47;1.50;;;1.40;;
26654;SDS011;14278;50.784;4.630;2022-11-20T12:22:17;0.77;;;0.77;;
26654;SDS011;14278;50.784;4.630;2022-11-20T12:25:07;1.50;;;1.20;;
26654;SDS011;14278;50.784;4.630;2022-11-20T12:30:15;2.50;;;1.53;;
26654;SDS011;14278;50.784;4.630;2022-11-20T12:36:07;1.90;;;1.07;;
26654;SDS011;14278;50.784;4.630;2022-11-20T12:44:21;1.30;;;1.13;;
26654;SDS011;14278;50.784;4.630;2022-11-20T12:50:14;11.77;;;7.97;;
26654;SDS011;14278;50.784;4.630;2022-11-20T12:53:05;16.50;;;11.77;;
26654;SDS011;14278;50.784;4.630;2022-11-20T12:55:54;1.17;;;1.13;;
26654;SDS011;14278;50.784;4.630;2022-11-20T13:01:30;0.87;;;0.87;;
26654;SDS011;14278;50.784;4.630;2022-11-20T13:07:02;1.53;;;1.43;;
26654;SDS011;14278;50.784;4.630;2022-11-20T13:09:29;1.63;;;1.10;;
26654;SDS011;14278;50.784;4.630;2022-11-20T13:17:20;4.90;;;1.30;;
26654;SDS011;14278;50.784;4.630;2022-11-20T13:19:56;2.33;;;1.50;;
26654;SDS011;14278;50.784;4.630;2022-11-20T13:22:27;3.80;;;1.90;;
26654;SDS011;14278;50.784;4.630;2022-11-20T13:25:30;1.80;;;1.00;;
26654;SDS011;14278;50.784;4.630;2022-11-20T13:28:03;1.90;;;1.17;;
26654;SDS011;14278;50.784;4.630;2022-11-20T13:30:36;1.20;;;1.10;;
26654;SDS011;14278;50.784;4.630;2022-11-20T13:33:25;1.83;;;1.70;;
26654;SDS011;14278;50.784;4.630;2022-11-20T13:36:06;1.77;;;1.17;;
26654;SDS011;14278;50.784;4.630;2022-11-20T13:38:49;0.93;;;0.93;;
26654;SDS011;14278;50.784;4.630;2022-11-20T13:41:52;1.20;;;1.00;;
26654;SDS011;14278;50.784;4.630;2022-11-20T13:44:23;1.90;;;1.50;;
26654;SDS011;14278;50.784;4.630;2022-11-20T13:47:04;1.17;;;1.07;;
26654;SDS011;14278;50.784;4.630;2022-11-20T13:49:47;2.37;;;1.47;;
26654;SDS011;14278;50.784;4.630;2022-11-20T13:52:36;0.77;;;0.77;;
26654;SDS011;14278;50.784;4.630;2022-11-20T13:55:13;1.93;;;1.00;;
26654;SDS011;14278;50.784;4.630;2022-11-20T14:00:43;1.10;;;1.10;;
26654;SDS011;14278;50.784;4.630;2022-11-20T14:03:24;2.10;;;1.30;;
26654;SDS011;14278;50.784;4.630;2022-11-20T14:05:57;3.53;;;1.60;;
26654;SDS011;14278;50.784;4.630;2022-11-20T14:08:31;0.60;;;0.60;;
26654;SDS011;14278;50.784;4.630;2022-11-20T14:11:18;1.17;;;1.03;;
26654;SDS011;14278;50.784;4.630;2022-11-20T14:16:25;1.20;;;1.10;;
26654;SDS011;14278;50.784;4.630;2022-11-20T14:18:52;1.50;;;0.93;;
26654;SDS011;14278;50.784;4.630;2022-11-20T14:21:25;0.80;;;0.80;;
26654;SDS011;14278;50.784;4.630;2022-11-20T14:23:54;1.13;;;0.93;;
26654;SDS011;14278;50.784;4.630;2022-11-20T14:26:32;0.80;;;0.80;;
26654;SDS011;14278;50.784;4.630;2022-11-20T14:28:59;1.20;;;1.10;;
26654;SDS011;14278;50.784;4.630;2022-11-20T14:31:25;1.67;;;1.30;;
26654;SDS011;14278;50.784;4.630;2022-11-20T14:33:53;1.13;;;1.03;;
26654;SDS011;14278;50.784;4.630;2022-11-20T14:36:21;0.93;;;0.93;;
26654;SDS011;14278;50.784;4.630;2022-11-20T14:38:49;1.63;;;1.40;;
26654;SDS011;14278;50.784;4.630;2022-11-20T14:41:20;1.47;;;1.37;;
26654;SDS011;14278;50.784;4.630;2022-11-20T14:43:53;4.03;;;1.47;;
26654;SDS011;14278;50.784;4.630;2022-11-20T14:46:23;1.10;;;1.00;;
26654;SDS011;14278;50.784;4.630;2022-11-20T14:48:54;1.10;;;0.93;;
26654;SDS011;14278;50.784;4.630;2022-11-20T14:51:38;1.27;;;1.17;;
26654;SDS011;14278;50.784;4.630;2022-11-20T14:54:10;0.97;;;0.80;;
26654;SDS011;14278;50.784;4.630;2022-11-20T14:56:37;1.37;;;1.10;;
26654;SDS011;14278;50.784;4.630;2022-11-20T14:59:03;0.70;;;0.70;;
26654;SDS011;14278;50.784;4.630;2022-11-20T15:01:30;0.60;;;0.60;;
26654;SDS011;14278;50.784;4.630;2022-11-20T15:06:29;1.07;;;0.97;;
26654;SDS011;14278;50.784;4.630;2022-11-20T15:08:56;1.10;;;0.97;;
26654;SDS011;14278;50.784;4.630;2022-11-20T15:11:27;0.60;;;0.60;;
26654;SDS011;14278;50.784;4.630;2022-11-20T15:13:55;0.60;;;0.60;;
26654;SDS011;14278;50.784;4.630;2022-11-20T15:16:23;0.60;;;0.60;;
26654;SDS011;14278;50.784;4.630;2022-11-20T15:18:50;2.13;;;1.57;;
26654;SDS011;14278;50.784;4.630;2022-11-20T15:21:17;4.43;;;3.60;;
26654;SDS011;14278;50.784;4.630;2022-11-20T15:23:45;2.07;;;1.73;;
26654;SDS011;14278;50.784;4.630;2022-11-20T15:26:13;1.80;;;1.70;;
26654;SDS011;14278;50.784;4.630;2022-11-20T15:28:44;1.40;;;1.30;;
26654;SDS011;14278;50.784;4.630;2022-11-20T15:31:16;4.30;;;2.50;;
26654;SDS011;14278;50.784;4.630;2022-11-20T15:33:44;2.20;;;2.00;;
26654;SDS011;14278;50.784;4.630;2022-11-20T15:36:10;2.30;;;2.10;;
26654;SDS011;14278;50.784;4.630;2022-11-20T15:38:36;4.93;;;1.73;;
26654;SDS011;14278;50.784;4.630;2022-11-20T15:41:02;2.73;;;2.07;;
26654;SDS011;14278;50.784;4.630;2022-11-20T15:43:28;4.20;;;2.20;;
26654;SDS011;14278;50.784;4.630;2022-11-20T15:46:04;2.23;;;2.00;;
26654;SDS011;14278;50.784;4.630;2022-11-20T15:48:44;1.90;;;1.50;;
26654;SDS011;14278;50.784;4.630;2022-11-20T15:53:57;1.53;;;1.43;;
26654;SDS011;14278;50.784;4.630;2022-11-20T15:56:24;1.63;;;1.53;;
26654;SDS011;14278;50.784;4.630;2022-11-20T15:58:50;3.00;;;2.50;;
26654;SDS011;14278;50.784;4.630;2022-11-20T16:01:17;2.47;;;1.80;;
26654;SDS011;14278;50.784;4.630;2022-11-20T16:03:45;1.07;;;1.07;;
26654;SDS011;14278;50.784;4.630;2022-11-20T16:06:11;2.57;;;2.03;;
26654;SDS011;14278;50.784;4.630;2022-11-20T16:08:37;2.40;;;1.80;;
26654;SDS011;14278;50.784;4.630;2022-11-20T16:11:03;3.33;;;1.73;;
26654;SDS011;14278;50.784;4.630;2022-11-20T16:13:30;2.27;;;1.80;;
26654;SDS011;14278;50.784;4.630;2022-11-20T16:18:49;2.30;;;2.00;;
26654;SDS011;14278;50.784;4.630;2022-11-20T16:21:15;2.30;;;1.67;;
26654;SDS011;14278;50.784;4.630;2022-11-20T16:23:41;5.43;;;2.00;;
26654;SDS011;14278;50.784;4.630;2022-11-20T16:26:14;1.73;;;1.30;;
26654;SDS011;14278;50.784;4.630;2022-11-20T16:28:46;2.80;;;1.60;;